< < Back
Terminal Aerodrome Forecast


Current Version              Previous Versions:   1  2  3  4  5  6  7  8  9  

Terminal Aerodrome Forecast

835
FTUS42 KFFC 241900 AAA
TAFATL
TAF AMD
KATL 241943Z 2420/2524 20008KT P6SM SCT070
     FM250000 16006KT P6SM BKN060
     FM250900 20007KT P6SM BKN050
     FM251200 23010KT P6SM SCT025 BKN050
     FM251500 24010G18KT P6SM BKN025
     FM251800 27012G20KT P6SM SCT040=



Latest METAR

721
SAUS70 KWBC 242200 RRB
MTRATL
METAR KATL 242152Z 21006KT 10SM BKN075 BKN250 26/09 A2993 RMK AO2 SLP131
T02560089


USA.gov is the U.S. government's official web portal to all federal, state and local government web resources and services.